sensor_id;sensor_type;location;lat;lon;timestamp;temperature;humidity
6865;DHT22;3471;49.678;8.388;2023-12-20T00:01:05;6.70;99.90
6865;DHT22;3471;49.678;8.388;2023-12-20T00:03:30;6.70;99.90
6865;DHT22;3471;49.678;8.388;2023-12-20T00:05:56;6.70;99.90
6865;DHT22;3471;49.678;8.388;2023-12-20T00:08:21;6.70;99.90
6865;DHT22;3471;49.678;8.388;2023-12-20T00:10:47;6.70;99.90
6865;DHT22;3471;49.678;8.388;2023-12-20T00:13:13;6.60;99.90
6865;DHT22;3471;49.678;8.388;2023-12-20T00:15:38;6.60;99.90
6865;DHT22;3471;49.678;8.388;2023-12-20T00:18:04;6.50;99.90
6865;DHT22;3471;49.678;8.388;2023-12-20T00:20:30;6.60;99.90
6865;DHT22;3471;49.678;8.388;2023-12-20T00:22:57;6.50;99.90
6865;DHT22;3471;49.678;8.388;2023-12-20T00:25:23;6.60;99.90
6865;DHT22;3471;49.678;8.388;2023-12-20T00:27:49;6.50;99.90
6865;DHT22;3471;49.678;8.388;2023-12-20T00:30:14;6.50;99.90
6865;DHT22;3471;49.678;8.388;2023-12-20T00:32:40;6.50;99.90
6865;DHT22;3471;49.678;8.388;2023-12-20T00:35:12;6.50;99.90
6865;DHT22;3471;49.678;8.388;2023-12-20T00:37:37;6.50;99.90
6865;DHT22;3471;49.678;8.388;2023-12-20T00:40:03;6.50;99.90
6865;DHT22;3471;49.678;8.388;2023-12-20T00:42:29;6.50;99.90
6865;DHT22;3471;49.678;8.388;2023-12-20T00:44:55;6.50;99.90
6865;DHT22;3471;49.678;8.388;2023-12-20T00:47:20;6.50;99.90
6865;DHT22;3471;49.678;8.388;2023-12-20T00:49:47;6.40;99.90
6865;DHT22;3471;49.678;8.388;2023-12-20T00:52:13;6.60;99.90
6865;DHT22;3471;49.678;8.388;2023-12-20T00:54:38;6.50;99.90
6865;DHT22;3471;49.678;8.388;2023-12-20T00:57:04;6.50;99.90
6865;DHT22;3471;49.678;8.388;2023-12-20T00:59:30;6.50;99.90
6865;DHT22;3471;49.678;8.388;2023-12-20T01:01:56;6.40;99.90
6865;DHT22;3471;49.678;8.388;2023-12-20T01:04:21;6.30;99.90
6865;DHT22;3471;49.678;8.388;2023-12-20T01:06:47;6.30;99.90
6865;DHT22;3471;49.678;8.388;2023-12-20T01:09:12;6.40;99.90
6865;DHT22;3471;49.678;8.388;2023-12-20T01:11:38;6.20;99.90
6865;DHT22;3471;49.678;8.388;2023-12-20T01:14:03;6.30;99.90
6865;DHT22;3471;49.678;8.388;2023-12-20T01:16:29;6.20;99.90
6865;DHT22;3471;49.678;8.388;2023-12-20T01:18:54;6.20;99.90
6865;DHT22;3471;49.678;8.388;2023-12-20T01:21:20;6.20;99.90
6865;DHT22;3471;49.678;8.388;2023-12-20T01:23:46;6.30;99.90
6865;DHT22;3471;49.678;8.388;2023-12-20T01:26:11;6.20;99.90
6865;DHT22;3471;49.678;8.388;2023-12-20T01:28:37;6.20;99.90
6865;DHT22;3471;49.678;8.388;2023-12-20T01:31:03;6.20;99.90
6865;DHT22;3471;49.678;8.388;2023-12-20T01:33:29;6.20;99.90
6865;DHT22;3471;49.678;8.388;2023-12-20T01:35:55;6.30;99.90
6865;DHT22;3471;49.678;8.388;2023-12-20T01:38:20;6.40;99.90
6865;DHT22;3471;49.678;8.388;2023-12-20T01:40:46;6.20;99.90
6865;DHT22;3471;49.678;8.388;2023-12-20T01:43:13;6.20;99.90
6865;DHT22;3471;49.678;8.388;2023-12-20T01:45:38;6.30;99.90
6865;DHT22;3471;49.678;8.388;2023-12-20T01:48:05;6.30;99.90
6865;DHT22;3471;49.678;8.388;2023-12-20T01:50:31;6.30;99.90
6865;DHT22;3471;49.678;8.388;2023-12-20T01:52:59;6.40;99.90
6865;DHT22;3471;49.678;8.388;2023-12-20T01:55:27;6.30;99.90
6865;DHT22;3471;49.678;8.388;2023-12-20T01:57:55;6.40;99.90
6865;DHT22;3471;49.678;8.388;2023-12-20T02:00:22;6.30;99.90
6865;DHT22;3471;49.678;8.388;2023-12-20T02:02:53;6.40;99.90
6865;DHT22;3471;49.678;8.388;2023-12-20T02:05:19;6.40;99.90
6865;DHT22;3471;49.678;8.388;2023-12-20T02:07:44;6.40;99.90
6865;DHT22;3471;49.678;8.388;2023-12-20T02:10:10;6.50;99.90
6865;DHT22;3471;49.678;8.388;2023-12-20T02:12:36;6.50;99.90
6865;DHT22;3471;49.678;8.388;2023-12-20T02:15:01;6.50;99.90
6865;DHT22;3471;49.678;8.388;2023-12-20T02:17:27;6.40;99.90
6865;DHT22;3471;49.678;8.388;2023-12-20T02:19:53;6.40;99.90
6865;DHT22;3471;49.678;8.388;2023-12-20T02:22:19;6.50;99.90
6865;DHT22;3471;49.678;8.388;2023-12-20T02:24:44;6.50;99.90
6865;DHT22;3471;49.678;8.388;2023-12-20T02:27:10;6.60;99.90
6865;DHT22;3471;49.678;8.388;2023-12-20T02:29:35;6.60;99.90
6865;DHT22;3471;49.678;8.388;2023-12-20T02:32:02;6.60;99.90
6865;DHT22;3471;49.678;8.388;2023-12-20T02:34:28;6.60;99.90
6865;DHT22;3471;49.678;8.388;2023-12-20T02:36:54;6.50;99.90
6865;DHT22;3471;49.678;8.388;2023-12-20T02:39:20;6.60;99.90
6865;DHT22;3471;49.678;8.388;2023-12-20T02:41:46;6.50;99.90
6865;DHT22;3471;49.678;8.388;2023-12-20T02:44:12;6.60;99.90
6865;DHT22;3471;49.678;8.388;2023-12-20T02:46:37;6.60;99.90
6865;DHT22;3471;49.678;8.388;2023-12-20T02:49:03;6.50;99.90
6865;DHT22;3471;49.678;8.388;2023-12-20T02:51:28;6.60;99.90
6865;DHT22;3471;49.678;8.388;2023-12-20T02:53:54;6.60;99.90
6865;DHT22;3471;49.678;8.388;2023-12-20T02:56:20;6.60;99.90
6865;DHT22;3471;49.678;8.388;2023-12-20T02:58:45;6.60;99.90
6865;DHT22;3471;49.678;8.388;2023-12-20T03:01:11;6.60;99.90
6865;DHT22;3471;49.678;8.388;2023-12-20T03:03:36;6.60;99.90
6865;DHT22;3471;49.678;8.388;2023-12-20T03:06:02;6.60;99.90
6865;DHT22;3471;49.678;8.388;2023-12-20T03:08:27;6.60;99.90
6865;DHT22;3471;49.678;8.388;2023-12-20T03:10:53;6.60;99.90
6865;DHT22;3471;49.678;8.388;2023-12-20T03:13:19;6.60;99.90
6865;DHT22;3471;49.678;8.388;2023-12-20T03:15:45;6.60;99.90
6865;DHT22;3471;49.678;8.388;2023-12-20T03:18:11;6.60;99.90
6865;DHT22;3471;49.678;8.388;2023-12-20T03:20:36;6.60;99.90
6865;DHT22;3471;49.678;8.388;2023-12-20T03:23:03;6.60;99.90
6865;DHT22;3471;49.678;8.388;2023-12-20T03:25:29;6.70;99.90
6865;DHT22;3471;49.678;8.388;2023-12-20T03:27:54;6.70;99.90
6865;DHT22;3471;49.678;8.388;2023-12-20T03:30:20;6.70;99.90
6865;DHT22;3471;49.678;8.388;2023-12-20T03:32:46;6.70;99.90
6865;DHT22;3471;49.678;8.388;2023-12-20T03:35:11;6.70;99.90
6865;DHT22;3471;49.678;8.388;2023-12-20T03:37:37;6.70;99.90
6865;DHT22;3471;49.678;8.388;2023-12-20T03:40:03;6.70;99.90
6865;DHT22;3471;49.678;8.388;2023-12-20T03:42:29;6.70;99.90
6865;DHT22;3471;49.678;8.388;2023-12-20T03:44:54;6.60;99.90
6865;DHT22;3471;49.678;8.388;2023-12-20T03:47:20;6.80;99.90
6865;DHT22;3471;49.678;8.388;2023-12-20T03:49:45;6.80;99.90
6865;DHT22;3471;49.678;8.388;2023-12-20T03:52:11;6.80;99.90
6865;DHT22;3471;49.678;8.388;2023-12-20T03:54:37;6.80;99.90
6865;DHT22;3471;49.678;8.388;2023-12-20T03:57:03;6.80;99.90
6865;DHT22;3471;49.678;8.388;2023-12-20T03:59:29;6.80;99.90
6865;DHT22;3471;49.678;8.388;2023-12-20T04:01:55;6.70;99.90
6865;DHT22;3471;49.678;8.388;2023-12-20T04:04:21;6.70;99.90
6865;DHT22;3471;49.678;8.388;2023-12-20T04:06:46;6.70;99.90
6865;DHT22;3471;49.678;8.388;2023-12-20T04:09:12;6.70;99.90
6865;DHT22;3471;49.678;8.388;2023-12-20T04:11:37;6.70;99.90
6865;DHT22;3471;49.678;8.388;2023-12-20T04:14:03;6.80;99.90
6865;DHT22;3471;49.678;8.388;2023-12-20T04:16:30;6.80;99.90
6865;DHT22;3471;49.678;8.388;2023-12-20T04:18:56;6.80;99.90
6865;DHT22;3471;49.678;8.388;2023-12-20T04:21:21;6.80;99.90
6865;DHT22;3471;49.678;8.388;2023-12-20T04:23:47;6.80;99.90
6865;DHT22;3471;49.678;8.388;2023-12-20T04:26:12;6.70;99.90
6865;DHT22;3471;49.678;8.388;2023-12-20T04:28:38;6.60;99.90
6865;DHT22;3471;49.678;8.388;2023-12-20T04:31:03;6.70;99.90
6865;DHT22;3471;49.678;8.388;2023-12-20T04:33:29;6.70;99.90
6865;DHT22;3471;49.678;8.388;2023-12-20T04:35:55;6.50;99.90
6865;DHT22;3471;49.678;8.388;2023-12-20T04:38:20;6.30;99.90
6865;DHT22;3471;49.678;8.388;2023-12-20T04:40:46;6.40;99.90
6865;DHT22;3471;49.678;8.388;2023-12-20T04:43:11;6.30;99.90
6865;DHT22;3471;49.678;8.388;2023-12-20T04:45:37;6.40;99.90
6865;DHT22;3471;49.678;8.388;2023-12-20T04:48:03;6.30;99.90
6865;DHT22;3471;49.678;8.388;2023-12-20T04:50:29;6.30;99.90
6865;DHT22;3471;49.678;8.388;2023-12-20T04:52:55;6.30;99.90
6865;DHT22;3471;49.678;8.388;2023-12-20T04:55:20;6.30;99.90
6865;DHT22;3471;49.678;8.388;2023-12-20T04:57:46;6.30;99.90
6865;DHT22;3471;49.678;8.388;2023-12-20T05:00:12;6.30;99.90
6865;DHT22;3471;49.678;8.388;2023-12-20T05:02:39;6.30;99.90
6865;DHT22;3471;49.678;8.388;2023-12-20T05:05:05;6.40;99.90
6865;DHT22;3471;49.678;8.388;2023-12-20T05:07:30;6.30;99.90
6865;DHT22;3471;49.678;8.388;2023-12-20T05:09:56;6.30;99.90
6865;DHT22;3471;49.678;8.388;2023-12-20T05:12:21;6.30;99.90
6865;DHT22;3471;49.678;8.388;2023-12-20T05:14:47;6.30;99.90
6865;DHT22;3471;49.678;8.388;2023-12-20T05:17:12;6.30;99.90
6865;DHT22;3471;49.678;8.388;2023-12-20T05:19:38;6.40;99.90
6865;DHT22;3471;49.678;8.388;2023-12-20T05:22:04;6.30;99.90
6865;DHT22;3471;49.678;8.388;2023-12-20T05:24:29;6.30;99.90
6865;DHT22;3471;49.678;8.388;2023-12-20T05:26:55;6.40;99.90
6865;DHT22;3471;49.678;8.388;2023-12-20T05:29:20;6.50;99.90
6865;DHT22;3471;49.678;8.388;2023-12-20T05:31:46;6.40;99.90
6865;DHT22;3471;49.678;8.388;2023-12-20T05:34:12;6.40;99.90
6865;DHT22;3471;49.678;8.388;2023-12-20T05:36:37;6.40;99.90
6865;DHT22;3471;49.678;8.388;2023-12-20T05:39:04;6.40;99.90
6865;DHT22;3471;49.678;8.388;2023-12-20T05:41:30;6.30;99.90
6865;DHT22;3471;49.678;8.388;2023-12-20T05:43:56;6.30;99.90
6865;DHT22;3471;49.678;8.388;2023-12-20T05:46:23;6.30;99.90
6865;DHT22;3471;49.678;8.388;2023-12-20T05:48:49;6.30;99.90
6865;DHT22;3471;49.678;8.388;2023-12-20T05:51:15;6.30;99.90
6865;DHT22;3471;49.678;8.388;2023-12-20T05:53:40;6.30;99.90
6865;DHT22;3471;49.678;8.388;2023-12-20T05:56:06;6.30;99.90
6865;DHT22;3471;49.678;8.388;2023-12-20T05:58:32;6.30;99.90
6865;DHT22;3471;49.678;8.388;2023-12-20T06:00:58;6.30;99.90
6865;DHT22;3471;49.678;8.388;2023-12-20T06:03:23;6.30;99.90
6865;DHT22;3471;49.678;8.388;2023-12-20T06:05:49;6.30;99.90
6865;DHT22;3471;49.678;8.388;2023-12-20T06:08:15;6.30;99.90
6865;DHT22;3471;49.678;8.388;2023-12-20T06:10:40;6.30;99.90
6865;DHT22;3471;49.678;8.388;2023-12-20T06:13:06;6.20;99.90
6865;DHT22;3471;49.678;8.388;2023-12-20T06:15:32;6.20;99.90
6865;DHT22;3471;49.678;8.388;2023-12-20T06:17:58;6.10;99.90
6865;DHT22;3471;49.678;8.388;2023-12-20T06:20:24;6.00;99.90
6865;DHT22;3471;49.678;8.388;2023-12-20T06:22:50;6.00;99.90
6865;DHT22;3471;49.678;8.388;2023-12-20T06:25:16;6.00;99.90
6865;DHT22;3471;49.678;8.388;2023-12-20T06:27:42;5.90;99.90
6865;DHT22;3471;49.678;8.388;2023-12-20T06:30:08;5.80;99.90
6865;DHT22;3471;49.678;8.388;2023-12-20T06:32:36;5.90;99.90
6865;DHT22;3471;49.678;8.388;2023-12-20T06:35:03;5.80;99.90
6865;DHT22;3471;49.678;8.388;2023-12-20T06:37:30;5.80;99.90
6865;DHT22;3471;49.678;8.388;2023-12-20T06:39:55;5.80;99.90
6865;DHT22;3471;49.678;8.388;2023-12-20T06:42:22;5.80;99.90
6865;DHT22;3471;49.678;8.388;2023-12-20T06:44:48;5.70;99.90
6865;DHT22;3471;49.678;8.388;2023-12-20T06:47:13;5.70;99.90
6865;DHT22;3471;49.678;8.388;2023-12-20T06:49:40;5.70;99.90
6865;DHT22;3471;49.678;8.388;2023-12-20T06:52:05;5.70;99.90
6865;DHT22;3471;49.678;8.388;2023-12-20T06:54:31;5.80;99.90
6865;DHT22;3471;49.678;8.388;2023-12-20T06:56:57;5.70;99.90
6865;DHT22;3471;49.678;8.388;2023-12-20T06:59:22;5.60;99.90
6865;DHT22;3471;49.678;8.388;2023-12-20T07:01:48;5.60;99.90
6865;DHT22;3471;49.678;8.388;2023-12-20T07:04:15;5.60;99.90
6865;DHT22;3471;49.678;8.388;2023-12-20T07:06:40;5.50;99.90
6865;DHT22;3471;49.678;8.388;2023-12-20T07:09:06;5.50;99.90
6865;DHT22;3471;49.678;8.388;2023-12-20T07:11:32;5.60;99.90
6865;DHT22;3471;49.678;8.388;2023-12-20T07:13:57;5.50;99.90
6865;DHT22;3471;49.678;8.388;2023-12-20T07:16:23;5.50;99.90
6865;DHT22;3471;49.678;8.388;2023-12-20T07:18:48;5.40;99.90
6865;DHT22;3471;49.678;8.388;2023-12-20T07:21:14;5.50;99.90
6865;DHT22;3471;49.678;8.388;2023-12-20T07:23:39;5.50;99.90
6865;DHT22;3471;49.678;8.388;2023-12-20T07:26:05;5.40;99.90
6865;DHT22;3471;49.678;8.388;2023-12-20T07:28:31;5.40;99.90
6865;DHT22;3471;49.678;8.388;2023-12-20T07:30:57;5.40;99.90
6865;DHT22;3471;49.678;8.388;2023-12-20T07:33:22;5.40;99.90
6865;DHT22;3471;49.678;8.388;2023-12-20T07:35:48;5.30;99.90
6865;DHT22;3471;49.678;8.388;2023-12-20T07:38:13;5.30;99.90
6865;DHT22;3471;49.678;8.388;2023-12-20T07:40:39;5.30;99.90
6865;DHT22;3471;49.678;8.388;2023-12-20T07:43:04;5.30;99.90
6865;DHT22;3471;49.678;8.388;2023-12-20T07:45:30;5.40;99.90
6865;DHT22;3471;49.678;8.388;2023-12-20T07:47:55;5.40;99.90
6865;DHT22;3471;49.678;8.388;2023-12-20T07:50:21;5.40;99.90
6865;DHT22;3471;49.678;8.388;2023-12-20T07:52:47;5.50;99.90
6865;DHT22;3471;49.678;8.388;2023-12-20T07:55:12;5.40;99.90
6865;DHT22;3471;49.678;8.388;2023-12-20T07:57:38;5.50;99.90
6865;DHT22;3471;49.678;8.388;2023-12-20T08:00:04;5.50;99.90
6865;DHT22;3471;49.678;8.388;2023-12-20T08:02:30;5.50;99.90
6865;DHT22;3471;49.678;8.388;2023-12-20T08:04:56;5.50;99.90
6865;DHT22;3471;49.678;8.388;2023-12-20T08:07:21;5.50;99.90
6865;DHT22;3471;49.678;8.388;2023-12-20T08:09:47;5.50;99.90
6865;DHT22;3471;49.678;8.388;2023-12-20T08:12:13;5.50;99.90
6865;DHT22;3471;49.678;8.388;2023-12-20T08:14:38;5.60;99.90
6865;DHT22;3471;49.678;8.388;2023-12-20T08:17:04;5.60;99.90
6865;DHT22;3471;49.678;8.388;2023-12-20T08:19:29;5.60;99.90
6865;DHT22;3471;49.678;8.388;2023-12-20T08:21:55;5.60;99.90
6865;DHT22;3471;49.678;8.388;2023-12-20T08:24:20;5.60;99.90
6865;DHT22;3471;49.678;8.388;2023-12-20T08:26:46;5.60;99.90
6865;DHT22;3471;49.678;8.388;2023-12-20T08:29:15;5.70;99.90
6865;DHT22;3471;49.678;8.388;2023-12-20T08:31:40;5.70;99.90
6865;DHT22;3471;49.678;8.388;2023-12-20T08:34:06;5.80;99.90
6865;DHT22;3471;49.678;8.388;2023-12-20T08:36:31;5.80;99.90
6865;DHT22;3471;49.678;8.388;2023-12-20T08:38:57;5.90;99.90
6865;DHT22;3471;49.678;8.388;2023-12-20T08:41:22;5.90;99.90
6865;DHT22;3471;49.678;8.388;2023-12-20T08:43:48;6.00;99.90
6865;DHT22;3471;49.678;8.388;2023-12-20T08:46:15;6.10;99.90
6865;DHT22;3471;49.678;8.388;2023-12-20T08:48:40;6.10;99.90
6865;DHT22;3471;49.678;8.388;2023-12-20T08:51:06;6.20;99.90
6865;DHT22;3471;49.678;8.388;2023-12-20T08:53:34;6.30;99.90
6865;DHT22;3471;49.678;8.388;2023-12-20T08:55:59;6.50;99.90
6865;DHT22;3471;49.678;8.388;2023-12-20T08:58:27;6.70;99.90
6865;DHT22;3471;49.678;8.388;2023-12-20T09:00:53;6.80;99.90
6865;DHT22;3471;49.678;8.388;2023-12-20T09:03:18;6.80;99.90
6865;DHT22;3471;49.678;8.388;2023-12-20T09:05:44;6.90;99.90
6865;DHT22;3471;49.678;8.388;2023-12-20T09:08:09;7.00;99.90
6865;DHT22;3471;49.678;8.388;2023-12-20T09:10:36;7.00;99.90
6865;DHT22;3471;49.678;8.388;2023-12-20T09:13:02;7.10;99.90
6865;DHT22;3471;49.678;8.388;2023-12-20T09:15:29;7.10;99.90
6865;DHT22;3471;49.678;8.388;2023-12-20T09:17:55;7.10;99.90
6865;DHT22;3471;49.678;8.388;2023-12-20T09:20:21;7.10;99.90
6865;DHT22;3471;49.678;8.388;2023-12-20T09:22:48;7.30;99.90
6865;DHT22;3471;49.678;8.388;2023-12-20T09:25:14;7.20;99.90
6865;DHT22;3471;49.678;8.388;2023-12-20T09:27:41;7.30;99.90
6865;DHT22;3471;49.678;8.388;2023-12-20T09:30:07;7.30;99.90
6865;DHT22;3471;49.678;8.388;2023-12-20T09:32:33;7.30;99.90
6865;DHT22;3471;49.678;8.388;2023-12-20T09:34:58;7.30;99.90
6865;DHT22;3471;49.678;8.388;2023-12-20T09:37:28;7.30;99.90
6865;DHT22;3471;49.678;8.388;2023-12-20T09:39:54;7.40;99.90
6865;DHT22;3471;49.678;8.388;2023-12-20T09:45:20;7.40;99.90
6865;DHT22;3471;49.678;8.388;2023-12-20T09:47:48;7.40;99.90
6865;DHT22;3471;49.678;8.388;2023-12-20T09:50:14;7.40;99.90
6865;DHT22;3471;49.678;8.388;2023-12-20T09:52:43;7.50;99.90
6865;DHT22;3471;49.678;8.388;2023-12-20T09:55:10;7.50;99.90
6865;DHT22;3471;49.678;8.388;2023-12-20T09:57:36;7.40;99.90
6865;DHT22;3471;49.678;8.388;2023-12-20T10:00:02;7.50;99.90
6865;DHT22;3471;49.678;8.388;2023-12-20T10:02:29;7.50;99.90
6865;DHT22;3471;49.678;8.388;2023-12-20T10:04:57;7.50;99.90
6865;DHT22;3471;49.678;8.388;2023-12-20T10:07:23;7.40;99.90
6865;DHT22;3471;49.678;8.388;2023-12-20T10:09:51;7.40;99.90
6865;DHT22;3471;49.678;8.388;2023-12-20T10:12:19;7.40;99.90
6865;DHT22;3471;49.678;8.388;2023-12-20T10:14:45;7.30;99.90
6865;DHT22;3471;49.678;8.388;2023-12-20T10:17:10;7.40;99.90
6865;DHT22;3471;49.678;8.388;2023-12-20T10:19:37;7.40;99.90
6865;DHT22;3471;49.678;8.388;2023-12-20T10:22:04;7.30;99.90
6865;DHT22;3471;49.678;8.388;2023-12-20T10:24:30;7.30;99.90
6865;DHT22;3471;49.678;8.388;2023-12-20T10:27:06;7.50;99.90
6865;DHT22;3471;49.678;8.388;2023-12-20T10:29:41;7.50;99.90
6865;DHT22;3471;49.678;8.388;2023-12-20T10:32:36;7.50;99.90
6865;DHT22;3471;49.678;8.388;2023-12-20T10:35:01;7.50;99.90
6865;DHT22;3471;49.678;8.388;2023-12-20T10:37:27;7.50;99.90
6865;DHT22;3471;49.678;8.388;2023-12-20T10:39:54;7.60;99.90
6865;DHT22;3471;49.678;8.388;2023-12-20T10:42:25;7.60;99.90
6865;DHT22;3471;49.678;8.388;2023-12-20T10:44:51;7.60;99.90
6865;DHT22;3471;49.678;8.388;2023-12-20T10:47:19;7.60;99.90
6865;DHT22;3471;49.678;8.388;2023-12-20T10:49:46;7.60;99.90
6865;DHT22;3471;49.678;8.388;2023-12-20T10:52:12;7.60;99.90
6865;DHT22;3471;49.678;8.388;2023-12-20T10:54:41;7.60;99.90
6865;DHT22;3471;49.678;8.388;2023-12-20T10:57:07;7.50;99.90
6865;DHT22;3471;49.678;8.388;2023-12-20T10:59:39;7.50;99.90
6865;DHT22;3471;49.678;8.388;2023-12-20T11:02:05;7.40;99.90
6865;DHT22;3471;49.678;8.388;2023-12-20T11:04:40;7.50;99.90
6865;DHT22;3471;49.678;8.388;2023-12-20T11:09:42;7.50;99.90
6865;DHT22;3471;49.678;8.388;2023-12-20T11:12:25;7.40;99.90
6865;DHT22;3471;49.678;8.388;2023-12-20T11:14:55;7.40;99.90
6865;DHT22;3471;49.678;8.388;2023-12-20T11:17:22;7.50;99.90
6865;DHT22;3471;49.678;8.388;2023-12-20T11:22:20;7.60;99.90
6865;DHT22;3471;49.678;8.388;2023-12-20T11:24:46;7.70;99.90
6865;DHT22;3471;49.678;8.388;2023-12-20T11:27:13;7.80;99.90
6865;DHT22;3471;49.678;8.388;2023-12-20T11:29:39;7.80;99.90
6865;DHT22;3471;49.678;8.388;2023-12-20T11:34:51;8.10;99.90
6865;DHT22;3471;49.678;8.388;2023-12-20T11:37:19;8.10;99.90
6865;DHT22;3471;49.678;8.388;2023-12-20T11:39:45;8.10;99.90
6865;DHT22;3471;49.678;8.388;2023-12-20T11:42:11;8.10;99.90
6865;DHT22;3471;49.678;8.388;2023-12-20T11:44:37;8.20;99.90
6865;DHT22;3471;49.678;8.388;2023-12-20T11:47:03;8.20;99.90
6865;DHT22;3471;49.678;8.388;2023-12-20T11:49:29;8.20;99.90
6865;DHT22;3471;49.678;8.388;2023-12-20T11:51:56;8.10;99.90
6865;DHT22;3471;49.678;8.388;2023-12-20T11:54:22;8.00;99.90
6865;DHT22;3471;49.678;8.388;2023-12-20T11:56:48;8.00;99.90
6865;DHT22;3471;49.678;8.388;2023-12-20T11:59:15;8.00;99.90
6865;DHT22;3471;49.678;8.388;2023-12-20T12:01:47;7.90;99.90
6865;DHT22;3471;49.678;8.388;2023-12-20T12:04:12;7.90;99.90
6865;DHT22;3471;49.678;8.388;2023-12-20T12:06:39;7.90;99.90
6865;DHT22;3471;49.678;8.388;2023-12-20T12:09:05;7.80;99.90
6865;DHT22;3471;49.678;8.388;2023-12-20T12:11:30;7.80;99.90
6865;DHT22;3471;49.678;8.388;2023-12-20T12:13:56;7.80;99.90
6865;DHT22;3471;49.678;8.388;2023-12-20T12:16:22;7.70;99.90
6865;DHT22;3471;49.678;8.388;2023-12-20T12:18:55;7.80;99.90
6865;DHT22;3471;49.678;8.388;2023-12-20T12:21:21;7.70;99.90
6865;DHT22;3471;49.678;8.388;2023-12-20T12:23:47;7.60;99.90
6865;DHT22;3471;49.678;8.388;2023-12-20T12:26:12;7.70;99.90
6865;DHT22;3471;49.678;8.388;2023-12-20T12:28:40;7.60;99.90
6865;DHT22;3471;49.678;8.388;2023-12-20T12:31:07;7.60;99.90
6865;DHT22;3471;49.678;8.388;2023-12-20T12:33:34;7.70;99.90
6865;DHT22;3471;49.678;8.388;2023-12-20T12:36:00;7.70;99.90
6865;DHT22;3471;49.678;8.388;2023-12-20T12:38:26;7.70;99.90
6865;DHT22;3471;49.678;8.388;2023-12-20T12:40:54;7.80;99.90
6865;DHT22;3471;49.678;8.388;2023-12-20T12:43:20;7.70;99.90
6865;DHT22;3471;49.678;8.388;2023-12-20T12:45:45;7.90;99.90
6865;DHT22;3471;49.678;8.388;2023-12-20T12:48:11;7.90;99.90
6865;DHT22;3471;49.678;8.388;2023-12-20T12:50:36;7.90;99.90
6865;DHT22;3471;49.678;8.388;2023-12-20T12:53:02;7.90;99.90
6865;DHT22;3471;49.678;8.388;2023-12-20T12:55:28;7.90;99.90
6865;DHT22;3471;49.678;8.388;2023-12-20T12:57:54;7.90;99.90
6865;DHT22;3471;49.678;8.388;2023-12-20T13:00:20;8.00;99.90
6865;DHT22;3471;49.678;8.388;2023-12-20T13:02:45;8.10;99.90
6865;DHT22;3471;49.678;8.388;2023-12-20T13:05:11;8.30;99.90
6865;DHT22;3471;49.678;8.388;2023-12-20T13:07:36;8.30;99.90
6865;DHT22;3471;49.678;8.388;2023-12-20T13:10:03;8.30;99.90
6865;DHT22;3471;49.678;8.388;2023-12-20T13:12:29;8.40;99.90
6865;DHT22;3471;49.678;8.388;2023-12-20T13:14:55;8.40;99.90
6865;DHT22;3471;49.678;8.388;2023-12-20T13:17:20;8.50;99.90
6865;DHT22;3471;49.678;8.388;2023-12-20T13:19:46;8.50;99.90
6865;DHT22;3471;49.678;8.388;2023-12-20T13:22:12;8.50;99.90
6865;DHT22;3471;49.678;8.388;2023-12-20T13:24:37;8.60;99.90
6865;DHT22;3471;49.678;8.388;2023-12-20T13:27:03;9.10;99.90
6865;DHT22;3471;49.678;8.388;2023-12-20T13:29:29;9.40;99.90
6865;DHT22;3471;49.678;8.388;2023-12-20T13:31:54;9.60;99.90
6865;DHT22;3471;49.678;8.388;2023-12-20T13:34:20;10.20;99.90
6865;DHT22;3471;49.678;8.388;2023-12-20T13:36:46;11.20;99.90
6865;DHT22;3471;49.678;8.388;2023-12-20T13:39:13;12.00;99.90
6865;DHT22;3471;49.678;8.388;2023-12-20T13:41:39;12.20;99.90
6865;DHT22;3471;49.678;8.388;2023-12-20T13:44:05;12.20;99.90
6865;DHT22;3471;49.678;8.388;2023-12-20T13:46:31;12.40;99.90
6865;DHT22;3471;49.678;8.388;2023-12-20T13:48:56;12.50;99.90
6865;DHT22;3471;49.678;8.388;2023-12-20T13:51:22;12.90;99.90
6865;DHT22;3471;49.678;8.388;2023-12-20T13:53:48;13.40;99.90
6865;DHT22;3471;49.678;8.388;2023-12-20T13:56:14;13.20;99.90
6865;DHT22;3471;49.678;8.388;2023-12-20T13:58:40;12.60;99.90
6865;DHT22;3471;49.678;8.388;2023-12-20T14:01:07;12.00;99.90
6865;DHT22;3471;49.678;8.388;2023-12-20T14:03:33;11.40;99.90
6865;DHT22;3471;49.678;8.388;2023-12-20T14:06:00;10.80;99.90
6865;DHT22;3471;49.678;8.388;2023-12-20T14:08:26;10.40;99.90
6865;DHT22;3471;49.678;8.388;2023-12-20T14:10:52;9.90;99.90
6865;DHT22;3471;49.678;8.388;2023-12-20T14:13:18;9.50;99.90
6865;DHT22;3471;49.678;8.388;2023-12-20T14:15:44;9.20;99.90
6865;DHT22;3471;49.678;8.388;2023-12-20T14:18:10;9.00;99.90
6865;DHT22;3471;49.678;8.388;2023-12-20T14:20:37;8.80;99.90
6865;DHT22;3471;49.678;8.388;2023-12-20T14:23:05;8.60;99.90
6865;DHT22;3471;49.678;8.388;2023-12-20T14:25:30;8.60;99.90
6865;DHT22;3471;49.678;8.388;2023-12-20T14:27:59;8.60;99.90
6865;DHT22;3471;49.678;8.388;2023-12-20T14:30:25;8.30;99.90
6865;DHT22;3471;49.678;8.388;2023-12-20T14:32:50;8.30;99.90
6865;DHT22;3471;49.678;8.388;2023-12-20T14:35:16;8.40;99.90
6865;DHT22;3471;49.678;8.388;2023-12-20T14:37:42;8.40;99.90
6865;DHT22;3471;49.678;8.388;2023-12-20T14:40:08;8.30;99.90
6865;DHT22;3471;49.678;8.388;2023-12-20T14:42:41;8.30;99.90
6865;DHT22;3471;49.678;8.388;2023-12-20T14:45:07;8.30;99.90
6865;DHT22;3471;49.678;8.388;2023-12-20T14:47:32;8.20;99.90
6865;DHT22;3471;49.678;8.388;2023-12-20T14:49:58;8.10;99.90
6865;DHT22;3471;49.678;8.388;2023-12-20T14:52:23;8.20;99.90
6865;DHT22;3471;49.678;8.388;2023-12-20T14:54:49;8.10;99.90
6865;DHT22;3471;49.678;8.388;2023-12-20T14:57:15;8.30;99.90
6865;DHT22;3471;49.678;8.388;2023-12-20T14:59:40;8.30;99.90
6865;DHT22;3471;49.678;8.388;2023-12-20T15:02:06;8.20;99.90
6865;DHT22;3471;49.678;8.388;2023-12-20T15:04:32;8.20;99.90
6865;DHT22;3471;49.678;8.388;2023-12-20T15:06:57;8.10;99.90
6865;DHT22;3471;49.678;8.388;2023-12-20T15:09:23;8.00;99.90
6865;DHT22;3471;49.678;8.388;2023-12-20T15:11:49;7.90;99.90
6865;DHT22;3471;49.678;8.388;2023-12-20T15:14:15;7.80;99.90
6865;DHT22;3471;49.678;8.388;2023-12-20T15:16:45;7.80;99.90
6865;DHT22;3471;49.678;8.388;2023-12-20T15:19:11;7.70;99.90
6865;DHT22;3471;49.678;8.388;2023-12-20T15:21:37;7.60;99.90
6865;DHT22;3471;49.678;8.388;2023-12-20T15:24:10;7.60;99.90
6865;DHT22;3471;49.678;8.388;2023-12-20T15:26:45;7.50;99.90
6865;DHT22;3471;49.678;8.388;2023-12-20T15:29:11;7.40;99.90
6865;DHT22;3471;49.678;8.388;2023-12-20T15:31:48;7.40;99.90
6865;DHT22;3471;49.678;8.388;2023-12-20T15:34:14;7.40;99.90
6865;DHT22;3471;49.678;8.388;2023-12-20T15:36:40;7.40;99.90
6865;DHT22;3471;49.678;8.388;2023-12-20T15:39:06;7.40;99.90
6865;DHT22;3471;49.678;8.388;2023-12-20T15:41:34;7.40;99.90
6865;DHT22;3471;49.678;8.388;2023-12-20T15:43:59;7.40;99.90
6865;DHT22;3471;49.678;8.388;2023-12-20T15:46:25;7.40;99.90
6865;DHT22;3471;49.678;8.388;2023-12-20T15:48:51;7.50;99.90
6865;DHT22;3471;49.678;8.388;2023-12-20T15:51:20;7.40;99.90
6865;DHT22;3471;49.678;8.388;2023-12-20T15:53:46;7.40;99.90
6865;DHT22;3471;49.678;8.388;2023-12-20T15:56:12;7.40;99.90
6865;DHT22;3471;49.678;8.388;2023-12-20T15:58:37;7.40;99.90
6865;DHT22;3471;49.678;8.388;2023-12-20T16:01:03;7.50;99.90
6865;DHT22;3471;49.678;8.388;2023-12-20T16:03:29;7.50;99.90
6865;DHT22;3471;49.678;8.388;2023-12-20T16:05:54;7.30;99.90
6865;DHT22;3471;49.678;8.388;2023-12-20T16:08:20;7.40;99.90
6865;DHT22;3471;49.678;8.388;2023-12-20T16:10:46;7.60;99.90
6865;DHT22;3471;49.678;8.388;2023-12-20T16:13:11;7.50;99.90
6865;DHT22;3471;49.678;8.388;2023-12-20T16:15:37;7.50;99.90
6865;DHT22;3471;49.678;8.388;2023-12-20T16:18:03;7.50;99.90
6865;DHT22;3471;49.678;8.388;2023-12-20T16:20:31;7.50;99.90